This is the latest recevied weather packets stored in our database for station/object IT9RID. If no packets are shown the sender has not sent any weather packets the latest 1 day(s).
| Time | Temp. | Humidity | Pressure | Rain* | Wind** | Luminosity | Snow |
|---|---|---|---|---|---|---|---|
| 1778037876 | 17.78° C | 77% | 1012.5 hPa | 0 mm | 0 m/s | - | - |
| 1778037276 | 17.78° C | 75% | 1012.6 hPa | 0 mm | 0 m/s | - | - |
| 1778036676 | 18.89° C | 68% | 1012.5 hPa | 0 mm | 0 m/s | - | - |
| 1778036076 | 19.44° C | 44% | 1012.4 hPa | 0 mm | 2.24 m/s, 234° | - | - |
| 1778035475 | 19.44° C | 47% | 1012.4 hPa | 0 mm | 0 m/s | - | - |
| 1778034875 | 19.44° C | 46% | 1012.2 hPa | 0 mm | 1.79 m/s, 249° | - | - |
| 1778034275 | 20° C | 43% | 1012.2 hPa | 0 mm | 0.89 m/s, 257° | - | - |
| 1778033676 | 19.44° C | 45% | 1012.3 hPa | 0 mm | 1.79 m/s, 219° | - | - |
| 1778033075 | 19.44° C | 44% | 1012.3 hPa | 0 mm | 0 m/s | - | - |
| 1778032474 | 18.89° C | 46% | 1012.3 hPa | 0 mm | 0 m/s | - | - |
| 1778031874 | 18.89° C | 53% | 1012.3 hPa | 0 mm | 0.45 m/s, 236° | - | - |
| 1778031276 | 19.44° C | 45% | 1012.6 hPa | 0 mm | 0 m/s | - | - |
| 1778030674 | 19.44° C | 47% | 1012.6 hPa | 0 mm | 1.79 m/s, 239° | - | - |
| 1778030074 | 18.89° C | 53% | 1012.7 hPa | 0 mm | 1.34 m/s, 193° | - | - |
| 1778029474 | 19.44° C | 56% | 1012.6 hPa | 0 mm | 0 m/s | - | - |
| 1778028874 | 20.56° C | 38% | 1012.7 hPa | 0 mm | 1.79 m/s, 215° | - | - |
| 1778028274 | 20° C | 40% | 1012.6 hPa | 0 mm | 1.79 m/s, 103° | - | - |
| 1778027673 | 20° C | 41% | 1012.7 hPa | 0 mm | 0.45 m/s, 238° | - | - |
| 1778027073 | 20° C | 41% | 1013 hPa | 0 mm | 0.89 m/s, 350° | - | - |
| 1778026473 | 20° C | 43% | 1013 hPa | 0 mm | 0 m/s | - | - |
| 1778025873 | 20° C | 42% | 1012.8 hPa | 0 mm | 4.47 m/s, 165° | - | - |
| 1778025273 | 20° C | 44% | 1013 hPa | 0 mm | 4.92 m/s, 155° | - | - |
| 1778024672 | 19.44° C | 48% | 1013.2 hPa | 0 mm | 2.68 m/s, 158° | - | - |
| 1778024072 | 18.89° C | 53% | 1013 hPa | 0 mm | 0 m/s | - | - |
| 1778023472 | 18.33° C | 62% | 1013.1 hPa | 0 mm | 0 m/s | - | - |
* Rain latest hour (hover to see other rain measurements)
** Current wind speed in m/s (hover to see current wind gust speed)